Time;durP1;ratioP1;P1;durP2;ratioP2;P2;SDS_P1;SDS_P2;PMS_P1;PMS_P2;Temp;Humidity;BMP_temperature;BMP_pressure;BME280_temperature;BME280_humidity;BME280_pressure;Samples;Min_cycle;Max_cycle;Signal;HPM_P1;HPM_P2
2021/05/12 00:00:19;;;;;;;10.63;6.00;;;;;;;12.39;89.62;100073.30;128326;1101;62107;-77
2021/05/12 00:02:48;;;;;;;10.60;7.40;;;;;;;12.43;89.82;100065.72;128339;1101;62360;-77
2021/05/12 00:05:16;;;;;;;13.13;7.73;;;;;;;12.41;90.32;100063.28;128333;1101;62051;-77
2021/05/12 00:07:45;;;;;;;12.03;8.10;;;;;;;12.43;89.89;100065.72;128372;1101;62313;-77
2021/05/12 00:10:12;;;;;;;10.10;6.87;;;;;;;12.43;90.43;100063.90;128403;1101;62330;-77
2021/05/12 00:12:41;;;;;;;14.97;9.43;;;;;;;12.38;90.49;100060.20;128282;1101;62799;-77
2021/05/12 00:15:17;;;;;;;18.13;9.87;;;;;;;12.38;90.55;100061.01;128358;1101;62060;-77
2021/05/12 00:17:47;;;;;;;16.10;10.10;;;;;;;12.36;90.32;100070.22;128405;1101;62735;-77
2021/05/12 00:20:21;;;;;;;14.77;10.10;;;;;;;12.35;90.70;100069.41;128357;1101;62445;-77
2021/05/12 00:23:05;;;;;;;16.43;10.47;;;;;;;12.35;90.41;100084.55;128453;1101;62203;-75
2021/05/12 00:25:32;;;;;;;18.93;10.00;;;;;;;12.34;90.32;100080.23;128283;1101;63300;-77
2021/05/12 00:27:59;;;;;;;11.10;7.03;;;;;;;12.29;90.53;100085.36;128226;1101;62212;-76
2021/05/12 00:30:26;;;;;;;14.87;9.40;;;;;;;12.29;90.21;100080.03;128408;1101;62242;-77
2021/05/12 00:32:53;;;;;;;10.30;7.40;;;;;;;12.28;90.20;100073.06;128429;1101;62005;-76
2021/05/12 00:35:22;;;;;;;11.40;7.17;;;;;;;12.27;90.21;100077.56;128459;1101;62280;-76
2021/05/12 00:37:49;;;;;;;17.60;11.03;;;;;;;12.27;90.23;100080.23;128415;1101;62828;-76
2021/05/12 00:40:18;;;;;;;13.90;9.40;;;;;;;12.24;90.04;100078.80;128418;1101;62495;-76
2021/05/12 00:42:46;;;;;;;12.27;9.13;;;;;;;12.25;89.94;100076.95;128455;1101;62025;-77
2021/05/12 00:45:16;;;;;;;11.37;7.90;;;;;;;12.26;90.08;100085.73;128445;1101;62196;-77
2021/05/12 00:47:48;;;;;;;12.30;8.87;;;;;;;12.26;90.02;100086.55;128489;1101;62024;-77
2021/05/12 00:50:19;;;;;;;13.40;7.90;;;;;;;12.26;90.10;100091.05;128455;1101;62562;-76
2021/05/12 00:52:46;;;;;;;17.03;10.57;;;;;;;12.26;90.10;100091.05;128378;1101;62145;-77
2021/05/12 00:55:16;;;;;;;16.07;9.70;;;;;;;12.26;90.17;100091.05;128429;1101;62422;-77
2021/05/12 00:57:44;;;;;;;10.20;6.23;;;;;;;12.26;90.30;100089.21;128431;1101;62246;-78
2021/05/12 01:00:14;;;;;;;16.60;10.73;;;;;;;12.27;90.11;100093.52;128392;1101;62250;-77
2021/05/12 01:02:42;;;;;;;15.63;10.27;;;;;;;12.27;90.36;100088.20;128478;1101;62247;-77
2021/05/12 01:05:34;;;;;;;16.43;10.47;;;;;;;12.30;90.21;100086.98;128422;1101;62001;-77
2021/05/12 01:08:06;;;;;;;13.53;9.27;;;;;;;12.32;90.40;100090.26;128332;1101;61898;-77
2021/05/12 01:10:34;;;;;;;21.87;11.43;;;;;;;12.28;90.35;100079.19;128447;1101;62586;-77
2021/05/12 01:13:02;;;;;;;14.50;10.57;;;;;;;12.26;90.35;100080.42;128200;1102;62374;-76
2021/05/12 01:15:30;;;;;;;16.03;11.00;;;;;;;12.23;90.52;100077.14;128474;1101;62101;-77
2021/05/12 01:18:12;;;;;;;20.37;11.77;;;;;;;12.22;90.45;100080.84;128396;1101;61863;-76
2021/05/12 01:20:49;;;;;;;13.93;10.20;;;;;;;12.21;90.52;100076.52;128332;1101;62388;-76
2021/05/12 01:23:19;;;;;;;16.53;11.07;;;;;;;12.19;90.55;100070.58;128373;1101;63091;-77
2021/05/12 01:25:47;;;;;;;19.07;11.07;;;;;;;12.19;90.52;100078.56;128421;1101;62164;-77
2021/05/12 01:28:17;;;;;;;18.33;11.30;;;;;;;12.16;90.75;100075.50;128391;1101;62857;-77
2021/05/12 01:31:01;;;;;;;12.45;8.00;;;;;;;12.09;90.33;100070.17;128394;1101;62213;-77
2021/05/12 01:33:29;;;;;;;12.57;9.07;;;;;;;12.05;90.19;100074.25;128394;1101;62076;-75
2021/05/12 01:35:57;;;;;;;14.73;9.37;;;;;;;12.04;90.13;100077.91;128375;1101;62074;-76
2021/05/12 01:38:26;;;;;;;19.70;11.87;;;;;;;12.01;90.06;100073.00;128325;1101;62839;-76
2021/05/12 01:40:54;;;;;;;16.53;11.27;;;;;;;11.99;90.34;100075.05;128419;1101;62468;-76
2021/05/12 01:43:22;;;;;;;21.67;12.60;;;;;;;11.99;90.52;100080.36;128370;1101;62324;-76
2021/05/12 01:45:49;;;;;;;18.20;11.80;;;;;;;11.97;90.74;100077.08;128412;1101;62522;-76
2021/05/12 01:48:17;;;;;;;16.10;10.90;;;;;;;11.97;90.45;100077.08;128409;1101;62199;-77
2021/05/12 01:50:45;;;;;;;18.20;11.77;;;;;;;11.96;90.25;100078.08;128367;1101;62113;-77
2021/05/12 01:53:13;;;;;;;17.13;11.57;;;;;;;11.96;90.38;100086.87;128416;1101;62990;-77
2021/05/12 01:55:41;;;;;;;18.37;10.93;;;;;;;11.95;90.52;100085.24;128296;1101;63123;-77
2021/05/12 01:58:09;;;;;;;19.73;12.87;;;;;;;11.93;90.31;100076.65;128370;1101;62529;-77
2021/05/12 02:00:40;;;;;;;18.07;11.73;;;;;;;11.95;90.51;100085.24;128222;1101;62301;-77
2021/05/12 02:03:08;;;;;;;17.70;11.43;;;;;;;11.96;90.45;100088.72;128400;1101;62407;-77
2021/05/12 02:05:40;;;;;;;16.57;11.17;;;;;;;11.97;90.36;100091.18;128386;1101;62444;-77
2021/05/12 02:08:10;;;;;;;17.57;11.00;;;;;;;11.97;90.20;100093.03;128396;1101;62227;-77
2021/05/12 02:10:40;;;;;;;19.80;11.77;;;;;;;11.97;90.25;100088.52;128407;1101;61677;-78
2021/05/12 02:13:07;;;;;;;16.17;10.57;;;;;;;11.97;90.19;100103.66;128373;1101;61836;-76
2021/05/12 02:15:35;;;;;;;19.83;12.13;;;;;;;11.96;90.35;100099.34;128417;1101;62727;-76
2021/05/12 02:18:02;;;;;;;16.53;10.30;;;;;;;11.92;90.41;100093.63;128352;1101;62974;-77
2021/05/12 02:20:32;;;;;;;14.60;10.67;;;;;;;11.92;90.23;100100.75;128385;1101;62850;-77
2021/05/12 02:23:03;;;;;;;15.73;9.43;;;;;;;11.91;90.44;100096.47;128399;1101;62326;-77
2021/05/12 02:25:31;;;;;;;19.53;11.37;;;;;;;11.91;90.34;100099.95;128123;1101;62561;-77
2021/05/12 02:27:58;;;;;;;14.57;9.80;;;;;;;11.88;90.40;100088.84;128356;1101;62678;-77
2021/05/12 02:30:25;;;;;;;15.87;10.33;;;;;;;11.87;90.65;100098.67;128404;1101;63273;-76
2021/05/12 02:32:55;;;;;;;20.27;11.97;;;;;;;11.86;90.69;100101.52;128272;1101;62187;-76
2021/05/12 02:35:23;;;;;;;16.67;10.40;;;;;;;11.87;90.21;100098.67;128397;1101;62217;-77
2021/05/12 02:37:51;;;;;;;16.53;10.40;;;;;;;11.87;90.60;100100.52;128244;1101;62619;-77
2021/05/12 02:40:20;;;;;;;18.27;10.20;;;;;;;11.84;90.44;100102.55;128390;1101;62118;-76
2021/05/12 02:42:49;;;;;;;17.77;9.87;;;;;;;11.82;90.43;100098.45;128378;1101;62223;-76
2021/05/12 02:45:16;;;;;;;15.27;10.20;;;;;;;11.80;90.68;100088.02;128400;1101;62681;-77
2021/05/12 02:47:57;;;;;;;11.17;7.33;;;;;;;11.78;90.74;100087.39;128411;1101;63071;-77
2021/05/12 02:50:40;;;;;;;19.00;11.43;;;;;;;11.76;90.71;100081.45;128380;1101;62372;-76
2021/05/12 02:53:10;;;;;;;20.93;12.10;;;;;;;11.75;90.51;100078.98;128413;1101;62242;-77
2021/05/12 02:55:38;;;;;;;15.30;10.90;;;;;;;11.73;91.03;100084.52;128416;1101;62204;-77
2021/05/12 02:58:07;;;;;;;18.93;10.93;;;;;;;11.72;90.93;100090.02;128320;1101;62364;-77
2021/05/12 03:00:36;;;;;;;17.37;10.47;;;;;;;11.70;91.14;100089.39;128404;1101;62405;-77
2021/05/12 03:03:06;;;;;;;14.20;8.20;;;;;;;11.68;91.07;100100.21;128409;1101;62045;-77
2021/05/12 03:05:33;;;;;;;18.23;10.57;;;;;;;11.67;90.75;100093.27;128445;1101;62375;-77
2021/05/12 03:08:02;;;;;;;15.13;9.53;;;;;;;11.65;90.95;100100.62;128415;1101;62177;-77
2021/05/12 03:10:33;;;;;;;14.47;9.83;;;;;;;11.64;90.54;100098.96;128484;1101;62430;-78
2021/05/12 03:13:03;;;;;;;12.67;6.60;;;;;;;11.62;90.82;100098.34;128444;1101;62531;-78
2021/05/12 03:15:31;;;;;;;15.30;9.27;;;;;;;11.63;90.58;100097.34;128356;1101;62184;-77
2021/05/12 03:17:59;;;;;;;21.43;10.30;;;;;;;11.65;90.75;100107.77;128291;1101;62328;-77
2021/05/12 03:20:28;;;;;;;17.03;10.40;;;;;;;11.64;90.27;100109.59;128073;1101;62160;-76
2021/05/12 03:22:55;;;;;;;17.70;10.57;;;;;;;11.62;90.65;100112.47;128373;1101;62828;-77
2021/05/12 03:25:23;;;;;;;12.90;8.37;;;;;;;11.61;90.43;100116.13;128401;1101;62245;-77
2021/05/12 03:27:50;;;;;;;14.60;9.53;;;;;;;11.61;90.42;100105.49;128347;1101;62645;-77
2021/05/12 03:30:21;;;;;;;19.30;9.33;;;;;;;11.63;90.33;100119.41;128375;1101;62105;-75
2021/05/12 03:32:49;;;;;;;12.23;6.80;;;;;;;11.62;90.07;100122.25;128372;1100;62127;-76
2021/05/12 03:35:18;;;;;;;11.50;7.93;;;;;;;11.61;90.31;100115.31;128327;1101;62453;-77
2021/05/12 03:37:46;;;;;;;13.10;7.80;;;;;;;11.62;89.86;100122.25;128605;1101;62060;-77
2021/05/12 03:40:14;;;;;;;11.57;7.60;;;;;;;11.63;90.00;100122.06;128166;1101;62424;-76
2021/05/12 03:42:41;;;;;;;16.93;9.93;;;;;;;11.66;89.87;100118.19;128354;1101;62732;-76
2021/05/12 03:45:10;;;;;;;16.10;10.10;;;;;;;11.68;90.00;100125.97;128422;1101;63367;-77
2021/05/12 03:47:37;;;;;;;12.10;6.50;;;;;;;11.67;89.97;100117.19;128394;1101;62147;-77
2021/05/12 03:50:06;;;;;;;15.97;8.53;;;;;;;11.68;89.77;100126.78;128294;1101;63204;-78
2021/05/12 03:52:33;;;;;;;21.40;11.77;;;;;;;11.69;89.42;100128.44;128394;1101;63094;-78
2021/05/12 03:55:00;;;;;;;16.87;11.20;;;;;;;11.71;89.76;100131.72;128351;1101;62058;-77
2021/05/12 03:57:27;;;;;;;15.63;9.57;;;;;;;11.69;89.69;100131.09;128366;1101;63077;-78
2021/05/12 03:59:54;;;;;;;16.70;10.53;;;;;;;11.71;89.01;100139.69;128373;1101;62153;-78
2021/05/12 04:02:21;;;;;;;18.17;10.70;;;;;;;11.69;89.57;100135.56;128434;1101;62149;-79
2021/05/12 04:04:52;;;;;;;15.87;10.33;;;;;;;11.71;89.74;100137.03;128412;1101;63936;-78
2021/05/12 04:07:19;;;;;;;19.00;12.73;;;;;;;11.73;89.78;100140.31;128408;1101;62218;-75
2021/05/12 04:09:48;;;;;;;21.23;11.50;;;;;;;11.76;89.65;100141.76;128118;1102;62457;-77
2021/05/12 04:12:15;;;;;;;24.27;12.93;;;;;;;11.78;89.91;100137.88;128353;1101;62765;-76
2021/05/12 04:14:42;;;;;;;13.57;7.50;;;;;;;11.79;89.95;100138.69;128281;1101;62114;-76
2021/05/12 04:17:08;;;;;;;18.03;10.07;;;;;;;11.78;89.51;100131.75;128407;1101;62162;-76
2021/05/12 04:19:36;;;;;;;16.93;10.57;;;;;;;11.77;89.85;100130.94;128262;1101;62588;-76
2021/05/12 04:22:03;;;;;;;20.10;13.07;;;;;;;11.78;89.71;100148.51;128348;1101;63353;-76
2021/05/12 04:24:31;;;;;;;20.00;11.33;;;;;;;11.78;89.77;100132.56;128325;1101;63403;-75
2021/05/12 04:26:58;;;;;;;19.43;10.60;;;;;;;11.80;90.12;100135.84;128406;1101;62271;-76
2021/05/12 04:29:25;;;;;;;23.40;13.93;;;;;;;11.82;89.67;100133.81;128344;1101;62155;-76
2021/05/12 04:31:52;;;;;;;21.43;11.97;;;;;;;11.83;89.96;100130.13;128402;1101;61973;-77
2021/05/12 04:34:20;;;;;;;13.73;8.23;;;;;;;11.82;90.29;100133.81;128435;1101;62180;-77
2021/05/12 04:36:47;;;;;;;15.07;9.27;;;;;;;11.82;90.38;100136.47;128338;1101;62164;-77
2021/05/12 04:39:15;;;;;;;28.10;12.17;;;;;;;11.81;90.11;100137.47;128379;1101;63634;-77
2021/05/12 04:41:42;;;;;;;25.50;13.10;;;;;;;11.81;90.59;100153.41;128416;1101;62298;-77
2021/05/12 04:44:11;;;;;;;16.50;9.10;;;;;;;11.80;90.69;100151.79;128401;1101;61984;-76
2021/05/12 04:46:39;;;;;;;26.30;13.30;;;;;;;11.81;90.74;100156.08;128384;1101;62460;-77
2021/05/12 04:49:08;;;;;;;28.10;13.30;;;;;;;11.78;91.37;100153.83;128362;1101;62062;-77
2021/05/12 04:51:35;;;;;;;20.10;10.90;;;;;;;11.78;91.27;100163.64;128404;1101;62240;-77
2021/05/12 04:54:06;;;;;;;23.77;12.00;;;;;;;11.77;91.67;100160.17;128361;1101;62532;-77
2021/05/12 04:56:34;;;;;;;27.67;14.17;;;;;;;11.80;91.26;100153.63;128125;1101;63772;-76
2021/05/12 04:59:01;;;;;;;24.77;13.60;;;;;;;11.82;91.24;100154.27;128366;1101;64229;-76
2021/05/12 05:01:30;;;;;;;26.23;13.10;;;;;;;11.86;91.12;100154.66;128227;1101;62345;-77
2021/05/12 05:04:01;;;;;;;21.67;11.73;;;;;;;11.86;91.00;100160.83;128403;1101;62211;-77
2021/05/12 05:06:28;;;;;;;24.30;13.10;;;;;;;11.92;91.06;100165.39;128389;1101;62461;-77
2021/05/12 05:08:55;;;;;;;21.93;11.03;;;;;;;11.94;90.59;100173.14;128379;1101;62281;-77
2021/05/12 05:11:22;;;;;;;26.47;14.03;;;;;;;11.98;90.25;100180.52;128370;1101;64040;-77
2021/05/12 05:13:49;;;;;;;26.57;13.50;;;;;;;12.05;89.98;100180.59;128380;1101;62390;-74
2021/05/12 05:16:16;;;;;;;21.90;10.90;;;;;;;12.11;89.76;100170.98;128371;1101;62119;-77
2021/05/12 05:18:45;;;;;;;24.90;13.13;;;;;;;12.17;89.71;100178.17;128361;1101;62324;-79
2021/05/12 05:21:12;;;;;;;26.50;12.07;;;;;;;12.16;89.22;100180.02;128322;1101;63055;-79
2021/05/12 05:23:41;;;;;;;21.53;10.93;;;;;;;12.17;88.94;100184.30;128381;1101;62372;-77
2021/05/12 05:26:08;;;;;;;24.47;14.63;;;;;;;12.21;88.68;100185.55;128355;1101;62605;-78
2021/05/12 05:28:35;;;;;;;22.97;10.17;;;;;;;12.22;88.16;100168.59;128369;1101;62318;-73
2021/05/12 05:31:02;;;;;;;21.65;11.55;;;;;;;12.24;87.95;100181.70;128409;1101;62650;-74
2021/05/12 05:33:29;;;;;;;24.77;12.57;;;;;;;12.28;88.14;100174.94;128123;1101;62451;-74
2021/05/12 05:35:56;;;;;;;21.75;11.45;;;;;;;12.31;87.97;100189.70;128396;1101;62872;-74
2021/05/12 05:38:23;;;;;;;18.23;8.93;;;;;;;12.36;88.05;100181.92;128296;1101;61987;-74
2021/05/12 05:40:50;;;;;;;24.93;14.00;;;;;;;12.40;87.63;100183.98;128354;1101;62490;-74
2021/05/12 05:43:17;;;;;;;20.03;10.87;;;;;;;12.52;87.59;100181.58;128388;1101;62071;-74
2021/05/12 05:45:44;;;;;;;18.97;10.97;;;;;;;12.64;86.72;100179.98;128330;1101;62398;-74
2021/05/12 05:48:11;;;;;;;25.17;13.77;;;;;;;12.73;86.26;100177.95;128300;1101;62868;-74
2021/05/12 05:50:40;;;;;;;20.73;11.33;;;;;;;12.80;85.48;100184.09;128382;1101;62435;-74
2021/05/12 05:53:07;;;;;;;18.00;10.97;;;;;;;12.87;85.08;100184.11;128397;1101;62735;-74
2021/05/12 05:55:34;;;;;;;20.00;11.40;;;;;;;12.92;85.03;100187.00;128344;1101;62432;-74
2021/05/12 05:58:01;;;;;;;19.30;10.83;;;;;;;12.95;84.50;100196.42;128379;1101;62419;-74
2021/05/12 06:00:28;;;;;;;17.73;9.67;;;;;;;12.89;84.02;100203.36;128380;1101;62904;-74
2021/05/12 06:02:55;;;;;;;24.17;11.20;;;;;;;12.86;84.67;100198.45;128385;1101;62600;-74
2021/05/12 06:05:23;;;;;;;18.77;9.33;;;;;;;12.81;84.58;100200.88;128353;1101;62763;-74
2021/05/12 06:07:49;;;;;;;20.60;12.17;;;;;;;12.72;83.68;100207.42;128369;1101;62623;-75
2021/05/12 06:10:17;;;;;;;17.00;9.63;;;;;;;12.62;84.28;100187.34;128387;1101;62177;-75
2021/05/12 06:12:45;;;;;;;21.57;10.97;;;;;;;12.52;84.56;100192.22;128396;1101;62928;-75
2021/05/12 06:15:19;;;;;;;25.67;13.23;;;;;;;12.48;84.87;100183.00;128363;1101;62179;-75
2021/05/12 06:17:51;;;;;;;20.23;9.67;;;;;;;12.40;85.13;100193.81;128352;1101;62879;-74
2021/05/12 06:20:19;;;;;;;15.67;9.87;;;;;;;12.34;85.30;100199.92;128408;1101;62182;-74
2021/05/12 06:22:46;;;;;;;17.50;10.20;;;;;;;12.33;85.54;100193.80;128379;1101;62338;-74
2021/05/12 06:25:14;;;;;;;24.03;10.27;;;;;;;12.36;85.83;100198.70;128435;1101;62874;-75
2021/05/12 06:27:42;;;;;;;19.63;10.27;;;;;;;12.39;85.82;100197.51;128328;1101;62066;-75
2021/05/12 06:30:10;;;;;;;14.17;8.30;;;;;;;12.51;85.75;100211.84;128379;1101;62396;-75
2021/05/12 06:32:37;;;;;;;21.60;12.00;;;;;;;12.58;84.64;100212.71;128432;1101;62298;-75
2021/05/12 06:35:04;;;;;;;14.63;8.13;;;;;;;12.48;83.29;100196.30;128417;1101;62509;-74
2021/05/12 06:37:31;;;;;;;11.40;6.87;;;;;;;12.75;83.44;100228.30;128448;1101;61961;-74
2021/05/12 06:39:58;;;;;;;15.07;7.87;;;;;;;12.83;82.71;100236.10;128393;1101;62271;-75
2021/05/12 06:42:26;;;;;;;12.30;7.47;;;;;;;12.83;81.76;100220.95;128306;1101;62279;-75
2021/05/12 06:44:53;;;;;;;13.70;8.70;;;;;;;12.85;82.21;100228.73;128429;1101;62048;-75
2021/05/12 06:47:21;;;;;;;9.40;6.00;;;;;;;12.81;82.35;100233.66;128405;1101;63123;-76
2021/05/12 06:49:48;;;;;;;12.20;7.47;;;;;;;12.79;82.65;100235.70;128427;1101;62626;-76
2021/05/12 06:52:15;;;;;;;14.87;9.07;;;;;;;12.76;82.55;100235.28;128436;1101;63501;-75
2021/05/12 06:54:42;;;;;;;12.13;7.50;;;;;;;12.69;82.11;100261.03;128444;1101;62222;-74
2021/05/12 06:57:09;;;;;;;17.83;9.50;;;;;;;12.65;82.51;100247.33;128460;1101;62090;-74
2021/05/12 06:59:36;;;;;;;16.77;8.47;;;;;;;12.60;82.81;100247.92;128420;1101;63044;-74
2021/05/12 07:02:03;;;;;;;12.23;7.33;;;;;;;12.53;83.24;100252.38;128448;1101;61995;-75
2021/05/12 07:04:31;;;;;;;15.30;8.23;;;;;;;12.54;83.07;100246.06;128446;1101;62240;-75
2021/05/12 07:06:58;;;;;;;15.70;8.83;;;;;;;12.53;83.48;100257.70;128421;1101;62129;-75
2021/05/12 07:09:25;;;;;;;12.80;7.07;;;;;;;12.51;82.84;100256.27;128435;1101;62048;-75
2021/05/12 07:11:52;;;;;;;11.83;5.97;;;;;;;12.50;82.54;100262.63;128417;1101;62185;-75
2021/05/12 07:14:20;;;;;;;9.70;6.13;;;;;;;12.44;82.92;100259.72;128413;1101;62247;-74
2021/05/12 07:16:48;;;;;;;9.57;5.33;;;;;;;12.49;82.75;100266.28;128363;1101;62325;-75
2021/05/12 07:19:18;;;;;;;14.50;7.67;;;;;;;12.55;82.94;100260.17;128410;1101;62275;-76
2021/05/12 07:21:46;;;;;;;10.97;5.90;;;;;;;12.53;81.94;100273.66;128463;1101;61703;-75
2021/05/12 07:24:14;;;;;;;11.00;6.00;;;;;;;12.51;82.19;100270.38;128447;1101;62258;-75
2021/05/12 07:26:41;;;;;;;12.80;7.57;;;;;;;12.47;82.20;100268.32;128428;1101;62411;-76
2021/05/12 07:29:08;;;;;;;9.63;5.80;;;;;;;12.44;82.63;100285.50;128413;1101;62319;-76
2021/05/12 07:31:36;;;;;;;12.50;7.47;;;;;;;12.32;82.68;100300.38;128442;1101;62035;-75
2021/05/12 07:34:06;;;;;;;11.33;6.80;;;;;;;12.28;82.44;100294.61;128377;1101;62317;-75
2021/05/12 07:36:34;;;;;;;11.33;5.83;;;;;;;12.28;82.91;100296.45;128464;1101;63905;-75
2021/05/12 07:39:01;;;;;;;12.63;7.13;;;;;;;12.31;82.61;100301.41;128369;1101;62489;-75
2021/05/12 07:41:28;;;;;;;10.70;6.47;;;;;;;12.36;82.45;100293.64;128415;1101;62336;-76
2021/05/12 07:43:55;;;;;;;14.73;8.00;;;;;;;12.49;82.37;100291.04;128433;1101;62405;-76
2021/05/12 07:46:26;;;;;;;10.40;5.97;;;;;;;12.65;82.49;100297.88;128396;1101;62642;-75
2021/05/12 07:48:53;;;;;;;10.47;6.50;;;;;;;12.75;82.19;100294.84;128447;1101;62236;-76
2021/05/12 07:51:22;;;;;;;9.90;6.27;;;;;;;12.82;81.62;100301.84;128427;1101;63170;-76
2021/05/12 07:53:53;;;;;;;11.60;6.53;;;;;;;12.86;81.04;100302.27;128429;1101;62110;-76
2021/05/12 07:56:20;;;;;;;9.53;5.20;;;;;;;12.89;81.21;100301.86;128451;1101;62337;-75
2021/05/12 07:58:47;;;;;;;11.53;6.00;;;;;;;12.95;81.07;100302.91;128471;1101;62017;-75
2021/05/12 08:01:39;;;;;;;13.83;6.83;;;;;;;13.01;81.55;100307.44;128478;1101;62299;-75
2021/05/12 08:04:05;;;;;;;9.63;5.93;;;;;;;13.04;79.29;100321.15;128428;1101;62584;-75
2021/05/12 08:06:32;;;;;;;15.23;8.30;;;;;;;13.18;80.34;100308.70;128355;1101;62316;-75
2021/05/12 08:09:02;;;;;;;12.80;7.07;;;;;;;13.32;79.74;100308.75;128442;1101;62504;-75
2021/05/12 08:11:29;;;;;;;8.53;5.93;;;;;;;13.50;79.70;100316.17;128431;1101;62739;-76
2021/05/12 08:13:56;;;;;;;7.90;3.93;;;;;;;13.62;79.26;100311.86;128391;1101;62214;-76
2021/05/12 08:16:24;;;;;;;8.67;5.73;;;;;;;13.65;77.83;100324.80;128451;1101;62054;-76
2021/05/12 08:18:51;;;;;;;8.07;5.20;;;;;;;13.71;78.44;100320.47;128444;1101;62234;-76
2021/05/12 08:21:21;;;;;;;7.87;4.97;;;;;;;13.72;78.10;100314.95;128150;1101;61993;-76
2021/05/12 08:23:50;;;;;;;9.83;6.60;;;;;;;13.71;77.42;100315.98;128461;1101;62243;-75
2021/05/12 08:26:17;;;;;;;9.13;6.03;;;;;;;13.71;77.16;100315.98;128456;1101;62060;-75
2021/05/12 08:28:45;;;;;;;9.57;5.23;;;;;;;13.69;77.53;100327.88;128446;1101;62521;-75
2021/05/12 08:31:13;;;;;;;9.83;4.93;;;;;;;13.61;77.17;100326.22;128407;1101;62377;-75
2021/05/12 08:33:42;;;;;;;9.23;4.43;;;;;;;13.60;76.60;100328.08;128468;1101;63579;-75
2021/05/12 08:36:09;;;;;;;12.05;6.00;;;;;;;13.57;77.93;100322.32;128460;1101;62207;-75
2021/05/12 08:38:37;;;;;;;8.13;4.10;;;;;;;13.56;78.03;100328.69;128486;1101;62103;-75
2021/05/12 08:41:04;;;;;;;14.97;5.77;;;;;;;13.56;77.84;100326.03;128421;1101;63778;-74
2021/05/12 08:43:32;;;;;;;10.90;6.10;;;;;;;13.64;79.11;100323.14;128142;1101;62335;-74
2021/05/12 08:46:00;;;;;;;11.87;6.80;;;;;;;13.56;79.06;100320.70;128494;1101;62030;-75
2021/05/12 08:48:28;;;;;;;7.37;4.63;;;;;;;13.57;79.61;100324.98;128338;1101;62063;-75
2021/05/12 08:50:57;;;;;;;8.70;6.00;;;;;;;13.56;79.68;100321.52;128416;1101;62276;-75
2021/05/12 08:53:25;;;;;;;8.13;5.80;;;;;;;13.53;79.23;100315.76;128363;1101;62602;-75
2021/05/12 08:55:52;;;;;;;13.77;8.20;;;;;;;13.55;79.50;100319.85;128431;1101;62527;-76
2021/05/12 08:58:19;;;;;;;11.27;6.90;;;;;;;13.62;78.98;100314.52;128465;1101;61944;-75
2021/05/12 09:00:46;;;;;;;9.73;5.97;;;;;;;13.86;80.38;100319.26;128423;1101;62416;-75
2021/05/12 09:03:14;;;;;;;12.37;6.80;;;;;;;14.12;80.07;100322.11;128193;1101;62160;-74
2021/05/12 09:05:42;;;;;;;7.03;4.17;;;;;;;14.39;79.32;100325.56;128416;1101;62294;-74
2021/05/12 09:08:10;;;;;;;10.30;7.17;;;;;;;14.67;78.97;100320.77;128178;1101;62330;-74
2021/05/12 09:10:37;;;;;;;9.17;6.83;;;;;;;14.87;76.35;100322.53;128390;1101;62422;-74
2021/05/12 09:13:04;;;;;;;9.07;6.13;;;;;;;14.96;76.32;100320.44;128439;1101;62184;-76
2021/05/12 09:15:32;;;;;;;7.87;6.07;;;;;;;14.95;74.78;100313.47;128191;1101;64035;-76
2021/05/12 09:18:08;;;;;;;7.23;5.00;;;;;;;14.89;74.88;100320.47;128407;1101;63088;-74
2021/05/12 09:20:39;;;;;;;8.57;5.93;;;;;;;14.78;73.66;100319.28;128418;1101;62319;-74
2021/05/12 09:23:15;;;;;;;6.67;4.43;;;;;;;14.69;72.90;100320.56;128419;1101;62238;-74
2021/05/12 09:25:51;;;;;;;;;;;;;;;14.60;73.39;100327.98;128427;1101;62403;-74
2021/05/12 09:28:20;;;;;;;8.07;4.77;;;;;;;14.42;73.20;100330.47;128378;1101;62162;-74
2021/05/12 09:31:02;;;;;;;6.73;4.97;;;;;;;14.28;74.04;100325.16;128415;1102;63118;-73
2021/05/12 09:33:32;;;;;;;6.60;3.93;;;;;;;14.38;75.39;100318.56;128436;1101;62130;-73
2021/05/12 09:36:00;;;;;;;7.77;5.27;;;;;;;14.57;74.33;100322.24;128444;1101;62223;-73
2021/05/12 09:38:29;;;;;;;10.47;6.23;;;;;;;14.76;74.62;100320.53;128431;1101;62092;-73
2021/05/12 09:41:09;;;;;;;7.57;3.90;;;;;;;14.85;73.18;100324.59;128402;1101;63151;-73
2021/05/12 09:43:47;;;;;;;9.17;5.03;;;;;;;14.88;71.90;100318.84;128416;1101;64185;-74
2021/05/12 09:46:16;;;;;;;7.90;5.60;;;;;;;14.91;73.65;100325.61;128369;1101;62000;-75
2021/05/12 09:48:58;;;;;;;8.43;6.17;;;;;;;14.76;72.06;100326.69;128295;1101;62443;-74
2021/05/12 09:51:28;;;;;;;8.80;5.60;;;;;;;14.70;73.39;100321.38;128360;1101;62843;-74
2021/05/12 09:54:07;;;;;;;7.63;6.07;;;;;;;14.78;74.27;100323.81;128340;1101;61973;-74
2021/05/12 09:56:50;;;;;;;8.77;5.73;;;;;;;14.77;71.33;100322.16;128309;1101;62262;-74
2021/05/12 09:59:23;;;;;;;7.87;5.10;;;;;;;14.71;72.17;100313.16;128290;1101;64204;-72
2021/05/12 10:01:55;;;;;;;9.87;5.03;;;;;;;14.79;72.59;100320.09;128159;1101;62301;-73
2021/05/12 10:04:32;;;;;;;10.13;5.23;;;;;;;14.84;72.23;100320.30;128425;1101;62278;-74
2021/05/12 10:07:02;;;;;;;9.53;6.07;;;;;;;14.86;72.21;100328.92;128179;1101;62408;-73
2021/05/12 10:09:31;;;;;;;11.97;7.17;;;;;;;14.95;71.72;100314.28;128418;1101;62516;-76
2021/05/12 10:12:07;;;;;;;6.80;4.60;;;;;;;15.09;71.20;100313.19;128312;1101;63488;-78
2021/05/12 10:14:36;;;;;;;9.80;6.40;;;;;;;15.12;71.03;100319.14;128568;1101;62232;-78
2021/05/12 10:17:07;;;;;;;8.80;5.00;;;;;;;15.23;70.96;100316.59;128483;1101;62408;-77
2021/05/12 10:19:36;;;;;;;6.80;3.90;;;;;;;15.33;69.90;100320.66;128395;1101;62070;-77
2021/05/12 10:22:05;;;;;;;7.03;4.73;;;;;;;15.44;70.70;100310.08;128465;1101;63569;-77
2021/05/12 10:24:38;;;;;;;5.57;3.73;;;;;;;15.52;70.82;100321.56;128340;1101;62528;-77
2021/05/12 10:27:13;;;;;;;4.47;3.13;;;;;;;15.57;70.00;100327.07;128387;1101;62118;-78
2021/05/12 10:29:50;;;;;;;6.43;4.30;;;;;;;15.48;65.22;100338.02;128484;1101;62207;-77
2021/05/12 10:32:33;;;;;;;5.40;3.50;;;;;;;15.46;65.54;100332.07;128472;1101;62660;-78
2021/05/12 10:35:06;;;;;;;7.93;4.03;;;;;;;15.53;66.73;100329.34;128319;1101;62539;-78
2021/05/12 10:38:01;;;;;;;5.43;2.90;;;;;;;15.60;66.10;100321.30;128394;1101;62257;-74
2021/05/12 10:40:38;;;;;;;5.80;3.93;;;;;;;15.66;63.90;100331.95;128454;1101;62029;-73
2021/05/12 10:43:21;;;;;;;6.13;3.70;;;;;;;15.68;63.33;100334.38;128316;1101;62894;-75
2021/05/12 10:48:40;;;;;;;6.20;4.53;;;;;;;15.79;63.67;100325.70;128437;1101;62896;-74
2021/05/12 10:51:20;;;;;;;5.80;3.80;;;;;;;15.90;65.09;100321.50;128414;1101;62071;-74
2021/05/12 10:53:52;;;;;;;5.47;3.50;;;;;;;16.03;64.92;100315.21;128433;1101;62139;-74
2021/05/12 10:56:37;;;;;;;9.80;3.67;;;;;;;16.03;63.24;100329.40;128398;1101;62237;-75
2021/05/12 10:59:12;;;;;;;6.70;4.40;;;;;;;16.10;62.87;100329.33;128449;1101;62525;-74
2021/05/12 11:01:42;;;;;;;6.17;4.03;;;;;;;16.11;62.23;100328.31;128174;1101;62840;-74
2021/05/12 11:04:19;;;;;;;5.87;4.40;;;;;;;16.20;61.85;100326.98;128416;1101;62684;-75
2021/05/12 11:06:49;;;;;;;6.27;3.97;;;;;;;16.43;63.44;100325.52;128427;1101;61948;-75
2021/05/12 11:09:18;;;;;;;4.63;3.47;;;;;;;16.61;61.40;100322.83;128463;1101;62058;-77
2021/05/12 11:11:45;;;;;;;10.60;4.00;;;;;;;16.68;61.20;100323.58;128434;1101;62330;-77
2021/05/12 11:14:31;;;;;;;4.27;2.97;;;;;;;16.68;58.97;100334.30;128463;1101;62379;-77
2021/05/12 11:17:07;;;;;;;;;;;;;;;16.68;59.05;100333.45;128462;1101;62095;-77
2021/05/12 11:19:35;;;;;;;;;;;;;;;16.68;59.08;100334.30;128452;1101;62035;-77
2021/05/12 11:22:21;;;;;;;;;;;;;;;16.75;59.72;100330.73;128477;1101;62200;-77